sensor_id;sensor_type;location;lat;lon;timestamp;pressure;altitude;pressure_sealevel;temperature;humidity
72612;BME280;60655;52.182;4.474;2023-01-01T00:01:44;100663.97;;;14.29;69.37
72612;BME280;60655;52.182;4.474;2023-01-01T00:03:53;100660.25;;;14.30;69.23
72612;BME280;60655;52.182;4.474;2023-01-01T00:05:54;100662.69;;;14.32;69.11
72612;BME280;60655;52.182;4.474;2023-01-01T00:07:55;100655.81;;;14.36;68.79
72612;BME280;60655;52.182;4.474;2023-01-01T00:09:56;100655.25;;;14.34;69.15
72612;BME280;60655;52.182;4.474;2023-01-01T00:12:15;100647.47;;;14.15;69.70
72612;BME280;60655;52.182;4.474;2023-01-01T00:14:16;100661.31;;;14.29;69.73
72612;BME280;60655;52.182;4.474;2023-01-01T00:16:17;100663.81;;;14.19;70.00
72612;BME280;60655;52.182;4.474;2023-01-01T00:18:20;100663.09;;;14.24;70.03
72612;BME280;60655;52.182;4.474;2023-01-01T00:20:21;100664.88;;;14.18;70.24
72612;BME280;60655;52.182;4.474;2023-01-01T00:22:22;100667.22;;;14.31;69.87
72612;BME280;60655;52.182;4.474;2023-01-01T00:24:23;100671.59;;;14.20;70.26
72612;BME280;60655;52.182;4.474;2023-01-01T00:26:24;100669.72;;;14.21;69.80
72612;BME280;60655;52.182;4.474;2023-01-01T00:28:26;100657.84;;;14.29;69.53
72612;BME280;60655;52.182;4.474;2023-01-01T00:30:27;100658.97;;;14.33;69.55
72612;BME280;60655;52.182;4.474;2023-01-01T00:32:28;100656.13;;;14.23;70.14
72612;BME280;60655;52.182;4.474;2023-01-01T00:34:29;100648.13;;;14.23;70.51
72612;BME280;60655;52.182;4.474;2023-01-01T00:36:30;100655.00;;;14.18;70.50
72612;BME280;60655;52.182;4.474;2023-01-01T00:38:32;100663.81;;;14.19;70.57
72612;BME280;60655;52.182;4.474;2023-01-01T00:40:33;100643.00;;;14.21;70.23
72612;BME280;60655;52.182;4.474;2023-01-01T00:42:34;100660.09;;;14.20;70.20
72612;BME280;60655;52.182;4.474;2023-01-01T00:44:35;100651.03;;;14.21;69.99
72612;BME280;60655;52.182;4.474;2023-01-01T00:46:36;100644.06;;;14.20;70.25
72612;BME280;60655;52.182;4.474;2023-01-01T00:48:37;100663.75;;;14.14;70.33
72612;BME280;60655;52.182;4.474;2023-01-01T00:50:38;100656.84;;;14.18;70.17
72612;BME280;60655;52.182;4.474;2023-01-01T00:52:39;100651.84;;;14.22;69.95
72612;BME280;60655;52.182;4.474;2023-01-01T00:54:39;100652.09;;;14.20;70.10
72612;BME280;60655;52.182;4.474;2023-01-01T00:56:40;100676.69;;;14.22;69.88
72612;BME280;60655;52.182;4.474;2023-01-01T00:58:41;100681.56;;;14.25;69.73
72612;BME280;60655;52.182;4.474;2023-01-01T01:00:42;100674.34;;;14.26;69.76
72612;BME280;60655;52.182;4.474;2023-01-01T01:02:44;100690.88;;;14.23;69.68
72612;BME280;60655;52.182;4.474;2023-01-01T01:04:45;100688.19;;;14.23;69.23
72612;BME280;60655;52.182;4.474;2023-01-01T01:06:46;100690.88;;;14.23;69.20
72612;BME280;60655;52.182;4.474;2023-01-01T01:08:47;100678.16;;;14.13;69.48
72612;BME280;60655;52.182;4.474;2023-01-01T01:10:48;100676.84;;;14.15;69.01
72612;BME280;60655;52.182;4.474;2023-01-01T01:12:49;100685.53;;;14.23;68.16
72612;BME280;60655;52.182;4.474;2023-01-01T01:14:50;100673.78;;;14.24;68.43
72612;BME280;60655;52.182;4.474;2023-01-01T01:16:51;100676.38;;;14.18;68.59
72612;BME280;60655;52.182;4.474;2023-01-01T01:18:54;100681.72;;;14.18;68.63
72612;BME280;60655;52.182;4.474;2023-01-01T01:20:55;100678.00;;;14.19;68.46
72612;BME280;60655;52.182;4.474;2023-01-01T01:22:56;100670.53;;;14.22;68.36
72612;BME280;60655;52.182;4.474;2023-01-01T01:24:57;100690.53;;;14.19;68.13
72612;BME280;60655;52.182;4.474;2023-01-01T01:26:58;100685.53;;;14.23;68.04
72612;BME280;60655;52.182;4.474;2023-01-01T01:28:59;100672.59;;;14.14;68.65
72612;BME280;60655;52.182;4.474;2023-01-01T01:31:00;100682.13;;;14.10;68.30
72612;BME280;60655;52.182;4.474;2023-01-01T01:33:01;100683.09;;;14.21;67.73
72612;BME280;60655;52.182;4.474;2023-01-01T01:35:02;100694.13;;;14.08;68.57
72612;BME280;60655;52.182;4.474;2023-01-01T01:37:03;100688.78;;;14.08;69.10
72612;BME280;60655;52.182;4.474;2023-01-01T01:39:04;100696.84;;;14.30;68.01
72612;BME280;60655;52.182;4.474;2023-01-01T01:41:05;100691.81;;;14.16;68.62
72612;BME280;60655;52.182;4.474;2023-01-01T01:43:20;100687.47;;;14.10;68.62
72612;BME280;60655;52.182;4.474;2023-01-01T01:45:22;100688.28;;;14.11;68.71
72612;BME280;60655;52.182;4.474;2023-01-01T01:47:34;100681.66;;;14.13;68.95
72612;BME280;60655;52.182;4.474;2023-01-01T01:49:37;100696.69;;;14.19;68.43
72612;BME280;60655;52.182;4.474;2023-01-01T01:51:39;100710.84;;;14.20;68.50
72612;BME280;60655;52.182;4.474;2023-01-01T01:53:44;100705.75;;;14.18;68.50
72612;BME280;60655;52.182;4.474;2023-01-01T01:55:53;100705.69;;;14.30;68.21
72612;BME280;60655;52.182;4.474;2023-01-01T01:57:55;100717.59;;;14.23;68.63
72612;BME280;60655;52.182;4.474;2023-01-01T01:59:57;100710.13;;;14.25;69.30
72612;BME280;60655;52.182;4.474;2023-01-01T02:01:59;100700.66;;;14.34;68.60
72612;BME280;60655;52.182;4.474;2023-01-01T02:04:02;100713.94;;;14.29;68.46
72612;BME280;60655;52.182;4.474;2023-01-01T02:06:04;100709.38;;;14.41;68.16
72612;BME280;60655;52.182;4.474;2023-01-01T02:08:05;100737.13;;;14.40;68.36
72612;BME280;60655;52.182;4.474;2023-01-01T02:10:07;100730.38;;;14.37;68.45
72612;BME280;60655;52.182;4.474;2023-01-01T02:12:08;100720.91;;;14.30;69.28
72612;BME280;60655;52.182;4.474;2023-01-01T02:14:09;100733.53;;;14.34;68.90
72612;BME280;60655;52.182;4.474;2023-01-01T02:18:28;100726.34;;;14.35;68.20
72612;BME280;60655;52.182;4.474;2023-01-01T02:23:09;100740.19;;;14.48;67.90
72612;BME280;60655;52.182;4.474;2023-01-01T02:27:34;100741.88;;;14.38;68.29
72612;BME280;60655;52.182;4.474;2023-01-01T02:29:45;100734.59;;;14.33;68.11
72612;BME280;60655;52.182;4.474;2023-01-01T02:31:54;100722.63;;;14.36;67.50
72612;BME280;60655;52.182;4.474;2023-01-01T02:34:01;100750.47;;;14.40;67.95
72612;BME280;60655;52.182;4.474;2023-01-01T02:36:05;100746.28;;;14.44;67.62
72612;BME280;60655;52.182;4.474;2023-01-01T02:38:10;100740.84;;;14.39;68.15
72612;BME280;60655;52.182;4.474;2023-01-01T02:40:13;100739.22;;;14.38;67.81
72612;BME280;60655;52.182;4.474;2023-01-01T02:42:15;100738.53;;;14.42;67.19
72612;BME280;60655;52.182;4.474;2023-01-01T02:44:18;100746.53;;;14.42;67.06
72612;BME280;60655;52.182;4.474;2023-01-01T02:46:21;100747.63;;;14.30;67.33
72612;BME280;60655;52.182;4.474;2023-01-01T02:48:46;100745.50;;;14.43;66.73
72612;BME280;60655;52.182;4.474;2023-01-01T02:50:48;100751.91;;;14.31;67.54
72612;BME280;60655;52.182;4.474;2023-01-01T02:53:18;100739.94;;;14.33;67.88
72612;BME280;60655;52.182;4.474;2023-01-01T02:57:42;100748.84;;;14.39;67.22
72612;BME280;60655;52.182;4.474;2023-01-01T03:10:09;100761.81;;;14.13;69.54
72612;BME280;60655;52.182;4.474;2023-01-01T03:16:39;100774.41;;;14.18;68.79
72612;BME280;60655;52.182;4.474;2023-01-01T03:20:47;100790.53;;;14.23;68.74
72612;BME280;60655;52.182;4.474;2023-01-01T03:22:50;100806.06;;;14.09;69.46
72612;BME280;60655;52.182;4.474;2023-01-01T03:24:57;100802.41;;;14.15;69.46
72612;BME280;60655;52.182;4.474;2023-01-01T03:27:16;100796.66;;;14.07;69.25
72612;BME280;60655;52.182;4.474;2023-01-01T03:29:21;100792.00;;;14.14;68.92
72612;BME280;60655;52.182;4.474;2023-01-01T03:31:24;100802.53;;;13.92;70.30
72612;BME280;60655;52.182;4.474;2023-01-01T03:33:32;100792.31;;;13.89;70.37
72612;BME280;60655;52.182;4.474;2023-01-01T03:35:42;100805.69;;;13.89;70.57
72612;BME280;60655;52.182;4.474;2023-01-01T03:37:47;100805.59;;;13.84;70.24
72612;BME280;60655;52.182;4.474;2023-01-01T03:39:52;100796.00;;;13.71;70.16
72612;BME280;60655;52.182;4.474;2023-01-01T03:41:59;100833.84;;;13.68;70.79
72612;BME280;60655;52.182;4.474;2023-01-01T03:46:28;100833.09;;;13.56;72.05
72612;BME280;60655;52.182;4.474;2023-01-01T03:48:30;100822.63;;;13.55;72.68
72612;BME280;60655;52.182;4.474;2023-01-01T03:51:00;100829.59;;;13.44;72.64
72612;BME280;60655;52.182;4.474;2023-01-01T03:53:08;100837.03;;;13.42;73.04
72612;BME280;60655;52.182;4.474;2023-01-01T03:55:29;100859.09;;;13.37;72.69
72612;BME280;60655;52.182;4.474;2023-01-01T03:57:55;100871.38;;;13.38;72.12
72612;BME280;60655;52.182;4.474;2023-01-01T04:00:17;100870.81;;;13.25;72.14
72612;BME280;60655;52.182;4.474;2023-01-01T04:02:21;100863.88;;;13.24;71.67
72612;BME280;60655;52.182;4.474;2023-01-01T04:04:27;100869.16;;;13.12;72.32
72612;BME280;60655;52.182;4.474;2023-01-01T04:06:28;100860.44;;;13.05;72.10
72612;BME280;60655;52.182;4.474;2023-01-01T04:08:32;100853.25;;;13.05;72.22
72612;BME280;60655;52.182;4.474;2023-01-01T04:10:36;100876.22;;;12.95;72.85
72612;BME280;60655;52.182;4.474;2023-01-01T04:12:39;100869.25;;;13.05;71.77
72612;BME280;60655;52.182;4.474;2023-01-01T04:14:41;100874.38;;;13.07;70.87
72612;BME280;60655;52.182;4.474;2023-01-01T04:16:42;100874.81;;;13.04;71.20
72612;BME280;60655;52.182;4.474;2023-01-01T04:18:43;100885.50;;;13.04;70.74
72612;BME280;60655;52.182;4.474;2023-01-01T04:20:44;100888.03;;;12.87;70.80
72612;BME280;60655;52.182;4.474;2023-01-01T04:22:45;100888.41;;;12.91;70.77
72612;BME280;60655;52.182;4.474;2023-01-01T04:24:46;100905.31;;;12.84;71.36
72612;BME280;60655;52.182;4.474;2023-01-01T04:26:47;100897.66;;;12.88;70.69
72612;BME280;60655;52.182;4.474;2023-01-01T04:28:48;100899.88;;;12.91;71.42
72612;BME280;60655;52.182;4.474;2023-01-01T04:30:49;100904.97;;;12.93;70.76
72612;BME280;60655;52.182;4.474;2023-01-01T04:32:50;100924.69;;;12.92;70.66
72612;BME280;60655;52.182;4.474;2023-01-01T04:34:53;100928.03;;;12.87;71.32
72612;BME280;60655;52.182;4.474;2023-01-01T04:36:54;100919.81;;;13.00;71.27
72612;BME280;60655;52.182;4.474;2023-01-01T04:38:55;100915.13;;;12.72;71.78
72612;BME280;60655;52.182;4.474;2023-01-01T04:40:57;100917.69;;;12.79;71.95
72612;BME280;60655;52.182;4.474;2023-01-01T04:42:58;100927.88;;;12.70;72.70
72612;BME280;60655;52.182;4.474;2023-01-01T04:44:59;100904.13;;;12.69;72.48
72612;BME280;60655;52.182;4.474;2023-01-01T04:47:00;100940.72;;;12.62;73.52
72612;BME280;60655;52.182;4.474;2023-01-01T04:49:01;100959.41;;;12.73;72.64
72612;BME280;60655;52.182;4.474;2023-01-01T04:51:03;100954.72;;;12.57;73.87
72612;BME280;60655;52.182;4.474;2023-01-01T04:53:04;100945.47;;;12.60;74.07
72612;BME280;60655;52.182;4.474;2023-01-01T04:55:05;100944.41;;;12.61;73.59
72612;BME280;60655;52.182;4.474;2023-01-01T04:57:06;100926.50;;;12.68;73.36
72612;BME280;60655;52.182;4.474;2023-01-01T04:59:07;100918.81;;;12.60;74.04
72612;BME280;60655;52.182;4.474;2023-01-01T05:01:20;100942.78;;;12.60;74.65
72612;BME280;60655;52.182;4.474;2023-01-01T05:03:21;100931.91;;;12.61;74.86
72612;BME280;60655;52.182;4.474;2023-01-01T05:05:22;100952.22;;;12.74;74.06
72612;BME280;60655;52.182;4.474;2023-01-01T05:07:23;100948.34;;;12.58;75.32
72612;BME280;60655;52.182;4.474;2023-01-01T05:09:24;100955.16;;;12.54;75.50
72612;BME280;60655;52.182;4.474;2023-01-01T05:11:27;100963.31;;;12.59;75.50
72612;BME280;60655;52.182;4.474;2023-01-01T05:13:29;100966.00;;;12.71;74.91
72612;BME280;60655;52.182;4.474;2023-01-01T05:15:29;100962.41;;;12.65;75.15
72612;BME280;60655;52.182;4.474;2023-01-01T05:17:30;100977.28;;;12.55;75.38
72612;BME280;60655;52.182;4.474;2023-01-01T05:19:31;100976.94;;;12.51;75.51
72612;BME280;60655;52.182;4.474;2023-01-01T05:21:35;100969.97;;;12.50;74.86
72612;BME280;60655;52.182;4.474;2023-01-01T05:23:36;100991.94;;;12.64;74.75
72612;BME280;60655;52.182;4.474;2023-01-01T05:25:37;100983.16;;;12.45;75.14
72612;BME280;60655;52.182;4.474;2023-01-01T05:27:38;100973.66;;;12.49;75.22
72612;BME280;60655;52.182;4.474;2023-01-01T05:29:39;100975.22;;;12.57;74.48
72612;BME280;60655;52.182;4.474;2023-01-01T05:31:40;100970.63;;;12.45;74.93
72612;BME280;60655;52.182;4.474;2023-01-01T05:33:42;100975.59;;;12.42;74.74
72612;BME280;60655;52.182;4.474;2023-01-01T05:35:43;101000.47;;;12.54;74.17
72612;BME280;60655;52.182;4.474;2023-01-01T05:37:44;100999.44;;;12.55;74.36
72612;BME280;60655;52.182;4.474;2023-01-01T05:39:45;100999.28;;;12.50;74.23
72612;BME280;60655;52.182;4.474;2023-01-01T05:41:46;101007.72;;;12.47;74.84
72612;BME280;60655;52.182;4.474;2023-01-01T05:43:47;101011.56;;;12.51;74.58
72612;BME280;60655;52.182;4.474;2023-01-01T05:45:48;101003.81;;;12.31;74.99
72612;BME280;60655;52.182;4.474;2023-01-01T05:47:49;101007.34;;;12.43;74.74
72612;BME280;60655;52.182;4.474;2023-01-01T05:49:50;101007.94;;;12.45;75.07
72612;BME280;60655;52.182;4.474;2023-01-01T05:51:51;101016.38;;;12.42;74.47
72612;BME280;60655;52.182;4.474;2023-01-01T05:53:53;101008.16;;;12.44;74.41
72612;BME280;60655;52.182;4.474;2023-01-01T05:55:54;101017.06;;;12.38;74.84
72612;BME280;60655;52.182;4.474;2023-01-01T05:57:56;101032.69;;;12.34;74.98
72612;BME280;60655;52.182;4.474;2023-01-01T05:59:57;101029.81;;;12.36;75.29
72612;BME280;60655;52.182;4.474;2023-01-01T06:01:57;101032.31;;;12.31;75.40
72612;BME280;60655;52.182;4.474;2023-01-01T06:03:59;101042.53;;;12.34;75.53
72612;BME280;60655;52.182;4.474;2023-01-01T06:06:05;101045.94;;;12.41;75.20
72612;BME280;60655;52.182;4.474;2023-01-01T06:08:06;101057.47;;;12.35;75.64
72612;BME280;60655;52.182;4.474;2023-01-01T06:10:07;101044.44;;;12.27;76.03
72612;BME280;60655;52.182;4.474;2023-01-01T06:12:08;101061.03;;;12.29;76.16
72612;BME280;60655;52.182;4.474;2023-01-01T06:14:09;101049.72;;;12.33;75.68
72612;BME280;60655;52.182;4.474;2023-01-01T06:16:10;101056.13;;;12.44;75.89
72612;BME280;60655;52.182;4.474;2023-01-01T06:18:11;101055.09;;;12.27;76.07
72612;BME280;60655;52.182;4.474;2023-01-01T06:20:12;101063.31;;;12.25;76.32
72612;BME280;60655;52.182;4.474;2023-01-01T06:22:13;101057.09;;;12.31;76.21
72612;BME280;60655;52.182;4.474;2023-01-01T06:24:14;101046.34;;;12.20;76.48
72612;BME280;60655;52.182;4.474;2023-01-01T06:26:24;101063.75;;;12.22;76.56
72612;BME280;60655;52.182;4.474;2023-01-01T06:28:25;101054.06;;;12.28;76.56
72612;BME280;60655;52.182;4.474;2023-01-01T06:30:26;101054.50;;;12.25;76.73
72612;BME280;60655;52.182;4.474;2023-01-01T06:32:27;101064.94;;;12.26;76.32
72612;BME280;60655;52.182;4.474;2023-01-01T06:34:28;101074.78;;;12.26;76.36
72612;BME280;60655;52.182;4.474;2023-01-01T06:36:29;101083.06;;;12.17;77.06
72612;BME280;60655;52.182;4.474;2023-01-01T06:38:31;101087.50;;;12.24;75.93
72612;BME280;60655;52.182;4.474;2023-01-01T06:40:32;101086.63;;;12.11;76.60
72612;BME280;60655;52.182;4.474;2023-01-01T06:42:35;101079.78;;;12.15;76.17
72612;BME280;60655;52.182;4.474;2023-01-01T06:44:36;101088.59;;;12.16;76.43
72612;BME280;60655;52.182;4.474;2023-01-01T06:46:37;101100.59;;;12.07;76.95
72612;BME280;60655;52.182;4.474;2023-01-01T06:48:37;101111.47;;;12.05;77.10
72612;BME280;60655;52.182;4.474;2023-01-01T06:50:38;101117.78;;;12.29;75.55
72612;BME280;60655;52.182;4.474;2023-01-01T06:52:39;101132.72;;;12.12;76.61
72612;BME280;60655;52.182;4.474;2023-01-01T06:54:40;101126.47;;;12.18;75.91
72612;BME280;60655;52.182;4.474;2023-01-01T06:56:41;101130.59;;;12.14;75.80
72612;BME280;60655;52.182;4.474;2023-01-01T06:58:42;101149.25;;;12.14;76.43
72612;BME280;60655;52.182;4.474;2023-01-01T07:00:43;101151.09;;;12.13;76.04
72612;BME280;60655;52.182;4.474;2023-01-01T07:02:47;101136.19;;;12.12;75.80
72612;BME280;60655;52.182;4.474;2023-01-01T07:04:47;101156.06;;;12.10;75.88
72612;BME280;60655;52.182;4.474;2023-01-01T07:06:48;101167.53;;;12.10;75.84
72612;BME280;60655;52.182;4.474;2023-01-01T07:08:50;101153.03;;;12.06;75.89
72612;BME280;60655;52.182;4.474;2023-01-01T07:10:51;101142.44;;;12.00;76.48
72612;BME280;60655;52.182;4.474;2023-01-01T07:12:52;101134.81;;;12.03;76.03
72612;BME280;60655;52.182;4.474;2023-01-01T07:14:52;101155.25;;;12.09;75.55
72612;BME280;60655;52.182;4.474;2023-01-01T07:16:55;101158.06;;;12.14;75.40
72612;BME280;60655;52.182;4.474;2023-01-01T07:18:56;101161.31;;;11.92;76.48
72612;BME280;60655;52.182;4.474;2023-01-01T07:21:02;101162.25;;;12.04;75.44
72612;BME280;60655;52.182;4.474;2023-01-01T07:23:03;101163.78;;;11.93;76.33
72612;BME280;60655;52.182;4.474;2023-01-01T07:25:05;101163.50;;;12.01;75.92
72612;BME280;60655;52.182;4.474;2023-01-01T07:27:06;101178.13;;;11.92;75.88
72612;BME280;60655;52.182;4.474;2023-01-01T07:29:08;101180.56;;;11.94;75.77
72612;BME280;60655;52.182;4.474;2023-01-01T07:31:09;101199.00;;;11.95;76.06
72612;BME280;60655;52.182;4.474;2023-01-01T07:33:12;101204.97;;;11.91;75.70
72612;BME280;60655;52.182;4.474;2023-01-01T07:35:13;101204.22;;;11.83;76.05
72612;BME280;60655;52.182;4.474;2023-01-01T07:37:14;101218.75;;;11.81;75.73
72612;BME280;60655;52.182;4.474;2023-01-01T07:39:15;101224.91;;;11.75;75.89
72612;BME280;60655;52.182;4.474;2023-01-01T07:41:16;101228.75;;;11.86;75.63
72612;BME280;60655;52.182;4.474;2023-01-01T07:43:17;101240.69;;;11.76;75.79
72612;BME280;60655;52.182;4.474;2023-01-01T07:45:18;101242.41;;;11.96;74.92
72612;BME280;60655;52.182;4.474;2023-01-01T07:47:25;101233.63;;;11.89;75.15
72612;BME280;60655;52.182;4.474;2023-01-01T07:49:26;101247.38;;;11.86;75.23
72612;BME280;60655;52.182;4.474;2023-01-01T07:51:27;101252.16;;;11.77;75.26
72612;BME280;60655;52.182;4.474;2023-01-01T07:53:28;101255.22;;;11.80;74.90
72612;BME280;60655;52.182;4.474;2023-01-01T07:55:29;101254.81;;;11.77;75.15
72612;BME280;60655;52.182;4.474;2023-01-01T07:57:30;101253.38;;;11.81;74.59
72612;BME280;60655;52.182;4.474;2023-01-01T07:59:31;101274.75;;;11.99;74.05
72612;BME280;60655;52.182;4.474;2023-01-01T08:01:35;101269.66;;;11.91;74.73
72612;BME280;60655;52.182;4.474;2023-01-01T08:03:37;101270.91;;;11.89;74.23
72612;BME280;60655;52.182;4.474;2023-01-01T08:05:38;101269.13;;;11.82;74.04
72612;BME280;60655;52.182;4.474;2023-01-01T08:07:39;101264.34;;;11.91;74.03
72612;BME280;60655;52.182;4.474;2023-01-01T08:09:40;101258.00;;;11.92;74.29
72612;BME280;60655;52.182;4.474;2023-01-01T08:11:41;101275.59;;;11.93;74.38
72612;BME280;60655;52.182;4.474;2023-01-01T08:13:42;101263.72;;;11.89;74.53
72612;BME280;60655;52.182;4.474;2023-01-01T08:15:42;101269.66;;;11.91;73.82
72612;BME280;60655;52.182;4.474;2023-01-01T08:17:43;101250.34;;;12.02;73.24
72612;BME280;60655;52.182;4.474;2023-01-01T08:19:44;101269.66;;;11.91;74.25
72612;BME280;60655;52.182;4.474;2023-01-01T08:21:46;101261.22;;;12.01;73.64
72612;BME280;60655;52.182;4.474;2023-01-01T08:23:47;101256.97;;;11.93;73.70
72612;BME280;60655;52.182;4.474;2023-01-01T08:25:48;101274.53;;;12.01;73.72
72612;BME280;60655;52.182;4.474;2023-01-01T08:27:49;101277.44;;;11.93;73.91
72612;BME280;60655;52.182;4.474;2023-01-01T08:29:50;101278.22;;;12.00;73.64
72612;BME280;60655;52.182;4.474;2023-01-01T08:31:51;101279.84;;;12.01;73.12
72612;BME280;60655;52.182;4.474;2023-01-01T08:33:52;101285.41;;;11.99;72.95
72612;BME280;60655;52.182;4.474;2023-01-01T08:35:53;101295.44;;;11.97;73.67
72612;BME280;60655;52.182;4.474;2023-01-01T08:37:54;101302.78;;;12.02;73.02
72612;BME280;60655;52.182;4.474;2023-01-01T08:39:55;101309.16;;;12.01;73.12
72612;BME280;60655;52.182;4.474;2023-01-01T08:41:56;101310.56;;;12.03;72.90
72612;BME280;60655;52.182;4.474;2023-01-01T08:43:57;101309.72;;;12.09;72.69
72612;BME280;60655;52.182;4.474;2023-01-01T08:45:57;101311.38;;;12.04;73.05
72612;BME280;60655;52.182;4.474;2023-01-01T08:47:58;101324.22;;;12.13;72.55
72612;BME280;60655;52.182;4.474;2023-01-01T08:50:00;101313.56;;;12.13;72.83
72612;BME280;60655;52.182;4.474;2023-01-01T08:52:01;101320.69;;;12.20;71.76
72612;BME280;60655;52.182;4.474;2023-01-01T08:54:02;101315.75;;;12.23;71.95
72612;BME280;60655;52.182;4.474;2023-01-01T08:56:05;101326.88;;;12.13;72.21
72612;BME280;60655;52.182;4.474;2023-01-01T08:58:07;101317.53;;;12.04;72.94
72612;BME280;60655;52.182;4.474;2023-01-01T09:00:08;101321.19;;;12.10;73.40
72612;BME280;60655;52.182;4.474;2023-01-01T09:02:10;101313.13;;;12.16;72.45
72612;BME280;60655;52.182;4.474;2023-01-01T09:04:12;101323.66;;;12.05;72.90
72612;BME280;60655;52.182;4.474;2023-01-01T09:06:13;101328.88;;;12.25;72.25
72612;BME280;60655;52.182;4.474;2023-01-01T09:08:14;101322.03;;;12.04;73.10
72612;BME280;60655;52.182;4.474;2023-01-01T09:10:15;101318.56;;;12.03;73.25
72612;BME280;60655;52.182;4.474;2023-01-01T09:12:16;101301.34;;;12.06;73.06
72612;BME280;60655;52.182;4.474;2023-01-01T09:14:18;101306.88;;;12.04;73.26
72612;BME280;60655;52.182;4.474;2023-01-01T09:16:20;101323.66;;;12.05;73.98
72612;BME280;60655;52.182;4.474;2023-01-01T09:18:21;101313.84;;;12.05;73.99
72612;BME280;60655;52.182;4.474;2023-01-01T09:20:22;101313.84;;;12.05;73.43
72612;BME280;60655;52.182;4.474;2023-01-01T09:22:23;101323.56;;;12.18;73.55
72612;BME280;60655;52.182;4.474;2023-01-01T09:24:24;101326.38;;;12.30;72.70
72612;BME280;60655;52.182;4.474;2023-01-01T09:26:25;101336.06;;;12.17;72.16
72612;BME280;60655;52.182;4.474;2023-01-01T09:28:26;101326.66;;;12.15;72.56
72612;BME280;60655;52.182;4.474;2023-01-01T09:30:29;101333.56;;;12.29;72.01
72612;BME280;60655;52.182;4.474;2023-01-01T09:32:30;101328.25;;;12.23;72.14
72612;BME280;60655;52.182;4.474;2023-01-01T09:34:31;101334.38;;;12.30;71.77
72612;BME280;60655;52.182;4.474;2023-01-01T09:36:32;101331.72;;;12.30;71.42
72612;BME280;60655;52.182;4.474;2023-01-01T09:38:33;101353.03;;;12.30;71.79
72612;BME280;60655;52.182;4.474;2023-01-01T09:40:48;101349.41;;;12.17;72.68
72612;BME280;60655;52.182;4.474;2023-01-01T09:43:27;101342.50;;;12.41;71.02
72612;BME280;60655;52.182;4.474;2023-01-01T09:45:28;101361.19;;;12.35;72.52
72612;BME280;60655;52.182;4.474;2023-01-01T09:47:40;101355.00;;;12.41;72.56
72612;BME280;60655;52.182;4.474;2023-01-01T09:49:44;101350.84;;;12.45;72.53
72612;BME280;60655;52.182;4.474;2023-01-01T09:51:52;101358.50;;;12.41;73.07
72612;BME280;60655;52.182;4.474;2023-01-01T09:54:00;101373.38;;;12.49;73.16
72612;BME280;60655;52.182;4.474;2023-01-01T09:56:08;101381.94;;;12.58;72.11
72612;BME280;60655;52.182;4.474;2023-01-01T09:58:12;101378.53;;;12.44;73.05
72612;BME280;60655;52.182;4.474;2023-01-01T10:00:16;101384.44;;;12.52;72.79
72612;BME280;60655;52.182;4.474;2023-01-01T10:06:32;101377.03;;;12.55;72.68
72612;BME280;60655;52.182;4.474;2023-01-01T10:10:51;101377.28;;;12.46;72.18
72612;BME280;60655;52.182;4.474;2023-01-01T10:13:29;101372.13;;;12.51;72.29
72612;BME280;60655;52.182;4.474;2023-01-01T10:15:36;101386.91;;;12.47;72.36
72612;BME280;60655;52.182;4.474;2023-01-01T10:17:43;101372.88;;;12.65;71.78
72612;BME280;60655;52.182;4.474;2023-01-01T10:19:51;101369.09;;;12.73;71.16
72612;BME280;60655;52.182;4.474;2023-01-01T10:21:57;101369.19;;;12.66;70.96
72612;BME280;60655;52.182;4.474;2023-01-01T10:26:10;101356.00;;;12.71;71.03
72612;BME280;60655;52.182;4.474;2023-01-01T10:30:26;101352.97;;;12.68;71.80
72612;BME280;60655;52.182;4.474;2023-01-01T10:32:31;101355.88;;;12.60;71.83
72612;BME280;60655;52.182;4.474;2023-01-01T10:34:32;101350.72;;;12.65;71.32
72612;BME280;60655;52.182;4.474;2023-01-01T10:36:34;101361.66;;;12.81;70.56
72612;BME280;60655;52.182;4.474;2023-01-01T10:38:36;101374.53;;;13.09;70.30
72612;BME280;60655;52.182;4.474;2023-01-01T10:40:38;101379.78;;;12.98;71.24
72612;BME280;60655;52.182;4.474;2023-01-01T10:42:39;101392.19;;;13.10;71.11
72612;BME280;60655;52.182;4.474;2023-01-01T10:44:41;101373.28;;;13.12;71.13
72612;BME280;60655;52.182;4.474;2023-01-01T10:46:46;101399.81;;;13.07;71.68
72612;BME280;60655;52.182;4.474;2023-01-01T10:49:08;101399.81;;;13.07;71.91
72612;BME280;60655;52.182;4.474;2023-01-01T10:51:15;101413.56;;;13.04;72.00
72612;BME280;60655;52.182;4.474;2023-01-01T10:55:27;101403.13;;;13.02;72.47
72612;BME280;60655;52.182;4.474;2023-01-01T10:57:31;101395.78;;;12.98;71.93
72612;BME280;60655;52.182;4.474;2023-01-01T10:59:38;101398.81;;;13.01;72.26
72612;BME280;60655;52.182;4.474;2023-01-01T11:01:39;101396.44;;;12.93;72.75
72612;BME280;60655;52.182;4.474;2023-01-01T11:06:05;101413.91;;;13.14;71.34
72612;BME280;60655;52.182;4.474;2023-01-01T11:08:17;101413.13;;;13.07;72.16
72612;BME280;60655;52.182;4.474;2023-01-01T11:10:24;101413.88;;;13.21;71.59
72612;BME280;60655;52.182;4.474;2023-01-01T11:12:29;101413.06;;;13.20;71.27
72612;BME280;60655;52.182;4.474;2023-01-01T11:14:37;101401.59;;;13.20;72.22
72612;BME280;60655;52.182;4.474;2023-01-01T11:16:38;101388.91;;;13.08;71.26
72612;BME280;60655;52.182;4.474;2023-01-01T11:18:40;101422.94;;;13.13;71.41
72612;BME280;60655;52.182;4.474;2023-01-01T11:20:41;101424.78;;;13.19;70.60
72612;BME280;60655;52.182;4.474;2023-01-01T11:22:48;101422.94;;;13.13;70.99
72612;BME280;60655;52.182;4.474;2023-01-01T11:24:59;101417.66;;;13.06;71.83
72612;BME280;60655;52.182;4.474;2023-01-01T11:27:30;101419.81;;;12.98;71.74
72612;BME280;60655;52.182;4.474;2023-01-01T11:29:31;101424.19;;;12.85;71.59